sensor_id;sensor_type;location;lat;lon;timestamp;P1;durP1;ratioP1;P2;durP2;ratioP2
58091;SDS011;43896;48.178;11.578;2023-07-29T00:01:48;5.30;;;2.30;;
58091;SDS011;43896;48.178;11.578;2023-07-29T00:04:22;5.13;;;2.17;;
58091;SDS011;43896;48.178;11.578;2023-07-29T00:06:50;5.10;;;2.17;;
58091;SDS011;43896;48.178;11.578;2023-07-29T00:09:18;4.15;;;2.00;;
58091;SDS011;43896;48.178;11.578;2023-07-29T00:11:46;6.53;;;2.20;;
58091;SDS011;43896;48.178;11.578;2023-07-29T00:14:11;5.63;;;2.20;;
58091;SDS011;43896;48.178;11.578;2023-07-29T00:16:56;5.65;;;2.33;;
58091;SDS011;43896;48.178;11.578;2023-07-29T00:19:39;4.85;;;2.50;;
58091;SDS011;43896;48.178;11.578;2023-07-29T00:22:12;4.00;;;2.00;;
58091;SDS011;43896;48.178;11.578;2023-07-29T00:24:51;4.72;;;2.20;;
58091;SDS011;43896;48.178;11.578;2023-07-29T00:27:25;5.72;;;2.45;;
58091;SDS011;43896;48.178;11.578;2023-07-29T00:30:11;4.68;;;2.05;;
58091;SDS011;43896;48.178;11.578;2023-07-29T00:32:44;5.30;;;2.17;;
58091;SDS011;43896;48.178;11.578;2023-07-29T00:35:14;4.35;;;2.17;;
58091;SDS011;43896;48.178;11.578;2023-07-29T00:37:40;5.40;;;2.00;;
58091;SDS011;43896;48.178;11.578;2023-07-29T00:40:25;4.35;;;2.20;;
58091;SDS011;43896;48.178;11.578;2023-07-29T00:42:53;4.47;;;2.30;;
58091;SDS011;43896;48.178;11.578;2023-07-29T00:45:21;4.30;;;2.10;;
58091;SDS011;43896;48.178;11.578;2023-07-29T00:48:00;5.30;;;2.05;;
58091;SDS011;43896;48.178;11.578;2023-07-29T00:50:30;4.53;;;2.13;;
58091;SDS011;43896;48.178;11.578;2023-07-29T00:53:01;3.92;;;2.00;;
58091;SDS011;43896;48.178;11.578;2023-07-29T00:55:32;4.40;;;1.92;;
58091;SDS011;43896;48.178;11.578;2023-07-29T00:58:02;5.10;;;2.00;;
58091;SDS011;43896;48.178;11.578;2023-07-29T01:00:53;5.55;;;2.10;;
58091;SDS011;43896;48.178;11.578;2023-07-29T01:03:30;4.07;;;1.80;;
58091;SDS011;43896;48.178;11.578;2023-07-29T01:06:07;3.80;;;1.88;;
58091;SDS011;43896;48.178;11.578;2023-07-29T01:09:04;4.03;;;2.00;;
58091;SDS011;43896;48.178;11.578;2023-07-29T01:11:45;4.70;;;2.00;;
58091;SDS011;43896;48.178;11.578;2023-07-29T01:17:07;3.97;;;1.90;;
58091;SDS011;43896;48.178;11.578;2023-07-29T01:22:51;4.50;;;2.08;;
58091;SDS011;43896;48.178;11.578;2023-07-29T01:25:17;3.90;;;2.05;;
58091;SDS011;43896;48.178;11.578;2023-07-29T01:27:44;4.85;;;2.00;;
58091;SDS011;43896;48.178;11.578;2023-07-29T01:30:16;4.20;;;2.17;;
58091;SDS011;43896;48.178;11.578;2023-07-29T01:32:49;4.97;;;2.00;;
58091;SDS011;43896;48.178;11.578;2023-07-29T01:35:45;4.55;;;1.90;;
58091;SDS011;43896;48.178;11.578;2023-07-29T01:38:19;4.63;;;2.20;;
58091;SDS011;43896;48.178;11.578;2023-07-29T01:41:04;5.68;;;2.17;;
58091;SDS011;43896;48.178;11.578;2023-07-29T01:43:34;5.30;;;2.15;;
58091;SDS011;43896;48.178;11.578;2023-07-29T01:46:09;4.18;;;2.05;;
58091;SDS011;43896;48.178;11.578;2023-07-29T01:48:50;5.32;;;2.20;;
58091;SDS011;43896;48.178;11.578;2023-07-29T01:51:25;4.25;;;2.00;;
58091;SDS011;43896;48.178;11.578;2023-07-29T01:54:00;4.10;;;2.03;;
58091;SDS011;43896;48.178;11.578;2023-07-29T01:56:31;4.53;;;2.20;;
58091;SDS011;43896;48.178;11.578;2023-07-29T01:59:05;4.25;;;1.83;;
58091;SDS011;43896;48.178;11.578;2023-07-29T02:01:45;5.30;;;2.00;;
58091;SDS011;43896;48.178;11.578;2023-07-29T02:04:14;4.57;;;2.20;;
58091;SDS011;43896;48.178;11.578;2023-07-29T02:06:54;3.85;;;2.00;;
58091;SDS011;43896;48.178;11.578;2023-07-29T02:09:20;5.45;;;2.17;;
58091;SDS011;43896;48.178;11.578;2023-07-29T02:11:50;6.32;;;2.33;;
58091;SDS011;43896;48.178;11.578;2023-07-29T02:14:26;4.72;;;2.28;;
58091;SDS011;43896;48.178;11.578;2023-07-29T02:16:57;4.85;;;2.40;;
58091;SDS011;43896;48.178;11.578;2023-07-29T02:19:32;4.10;;;1.98;;
58091;SDS011;43896;48.178;11.578;2023-07-29T02:22:05;5.10;;;2.30;;
58091;SDS011;43896;48.178;11.578;2023-07-29T02:24:41;4.22;;;2.33;;
58091;SDS011;43896;48.178;11.578;2023-07-29T02:27:09;5.68;;;2.13;;
58091;SDS011;43896;48.178;11.578;2023-07-29T02:29:49;4.88;;;2.25;;
58091;SDS011;43896;48.178;11.578;2023-07-29T02:32:23;4.65;;;1.95;;
58091;SDS011;43896;48.178;11.578;2023-07-29T02:34:59;5.57;;;2.40;;
58091;SDS011;43896;48.178;11.578;2023-07-29T02:37:47;4.10;;;1.98;;
58091;SDS011;43896;48.178;11.578;2023-07-29T02:40:17;5.10;;;2.40;;
58091;SDS011;43896;48.178;11.578;2023-07-29T02:42:53;7.00;;;2.00;;
58091;SDS011;43896;48.178;11.578;2023-07-29T02:45:31;4.93;;;2.00;;
58091;SDS011;43896;48.178;11.578;2023-07-29T02:48:06;5.03;;;2.30;;
58091;SDS011;43896;48.178;11.578;2023-07-29T02:50:36;4.50;;;2.13;;
58091;SDS011;43896;48.178;11.578;2023-07-29T02:53:09;4.15;;;1.88;;
58091;SDS011;43896;48.178;11.578;2023-07-29T02:55:44;5.30;;;2.08;;
58091;SDS011;43896;48.178;11.578;2023-07-29T02:58:14;4.20;;;2.05;;
58091;SDS011;43896;48.178;11.578;2023-07-29T03:00:41;5.03;;;2.30;;
58091;SDS011;43896;48.178;11.578;2023-07-29T03:03:17;6.18;;;2.33;;
58091;SDS011;43896;48.178;11.578;2023-07-29T03:05:46;4.20;;;2.30;;
58091;SDS011;43896;48.178;11.578;2023-07-29T03:08:12;4.50;;;2.13;;
58091;SDS011;43896;48.178;11.578;2023-07-29T03:10:40;3.97;;;2.03;;
58091;SDS011;43896;48.178;11.578;2023-07-29T03:13:10;4.07;;;2.08;;
58091;SDS011;43896;48.178;11.578;2023-07-29T03:15:43;4.80;;;2.20;;
58091;SDS011;43896;48.178;11.578;2023-07-29T03:18:16;4.07;;;2.00;;
58091;SDS011;43896;48.178;11.578;2023-07-29T03:20:51;4.65;;;2.33;;
58091;SDS011;43896;48.178;11.578;2023-07-29T03:23:23;4.50;;;2.28;;
58091;SDS011;43896;48.178;11.578;2023-07-29T03:26:00;6.72;;;2.10;;
58091;SDS011;43896;48.178;11.578;2023-07-29T03:28:32;4.95;;;2.40;;
58091;SDS011;43896;48.178;11.578;2023-07-29T03:31:00;3.53;;;1.77;;
58091;SDS011;43896;48.178;11.578;2023-07-29T03:33:28;4.82;;;1.88;;
58091;SDS011;43896;48.178;11.578;2023-07-29T03:36:06;4.93;;;2.10;;
58091;SDS011;43896;48.178;11.578;2023-07-29T03:38:34;3.95;;;2.00;;
58091;SDS011;43896;48.178;11.578;2023-07-29T03:41:10;7.60;;;1.90;;
58091;SDS011;43896;48.178;11.578;2023-07-29T03:43:41;4.45;;;1.92;;
58091;SDS011;43896;48.178;11.578;2023-07-29T03:46:09;4.30;;;1.90;;
58091;SDS011;43896;48.178;11.578;2023-07-29T03:48:44;3.50;;;1.67;;
58091;SDS011;43896;48.178;11.578;2023-07-29T03:54:00;5.18;;;2.05;;
58091;SDS011;43896;48.178;11.578;2023-07-29T03:56:25;5.60;;;2.05;;
58091;SDS011;43896;48.178;11.578;2023-07-29T03:58:51;4.03;;;1.75;;
58091;SDS011;43896;48.178;11.578;2023-07-29T04:01:32;4.10;;;1.70;;
58091;SDS011;43896;48.178;11.578;2023-07-29T04:04:00;4.07;;;1.58;;
58091;SDS011;43896;48.178;11.578;2023-07-29T04:06:30;5.18;;;1.80;;
58091;SDS011;43896;48.178;11.578;2023-07-29T04:09:05;3.70;;;1.63;;
58091;SDS011;43896;48.178;11.578;2023-07-29T04:11:33;4.88;;;1.70;;
58091;SDS011;43896;48.178;11.578;2023-07-29T04:14:04;3.80;;;1.90;;
58091;SDS011;43896;48.178;11.578;2023-07-29T04:16:30;4.07;;;1.70;;
58091;SDS011;43896;48.178;11.578;2023-07-29T04:19:00;3.42;;;1.77;;
58091;SDS011;43896;48.178;11.578;2023-07-29T04:21:28;4.38;;;1.85;;
58091;SDS011;43896;48.178;11.578;2023-07-29T04:23:58;4.32;;;1.70;;
58091;SDS011;43896;48.178;11.578;2023-07-29T04:26:26;3.58;;;1.73;;
58091;SDS011;43896;48.178;11.578;2023-07-29T04:28:52;3.35;;;1.70;;
58091;SDS011;43896;48.178;11.578;2023-07-29T04:31:24;3.53;;;1.73;;
58091;SDS011;43896;48.178;11.578;2023-07-29T04:33:57;4.45;;;1.60;;
58091;SDS011;43896;48.178;11.578;2023-07-29T04:36:29;3.22;;;1.67;;
58091;SDS011;43896;48.178;11.578;2023-07-29T04:38:57;5.68;;;1.75;;
58091;SDS011;43896;48.178;11.578;2023-07-29T04:41:25;3.80;;;1.60;;
58091;SDS011;43896;48.178;11.578;2023-07-29T04:44:03;4.85;;;1.45;;
58091;SDS011;43896;48.178;11.578;2023-07-29T04:46:41;4.20;;;1.70;;
58091;SDS011;43896;48.178;11.578;2023-07-29T04:49:07;3.33;;;1.50;;
58091;SDS011;43896;48.178;11.578;2023-07-29T04:51:33;4.03;;;1.70;;
58091;SDS011;43896;48.178;11.578;2023-07-29T04:53:58;4.57;;;1.45;;
58091;SDS011;43896;48.178;11.578;2023-07-29T04:56:44;4.03;;;1.60;;
58091;SDS011;43896;48.178;11.578;2023-07-29T05:02:41;4.22;;;1.60;;
58091;SDS011;43896;48.178;11.578;2023-07-29T05:05:12;3.60;;;1.48;;
58091;SDS011;43896;48.178;11.578;2023-07-29T05:07:57;5.20;;;1.50;;
58091;SDS011;43896;48.178;11.578;2023-07-29T05:10:32;2.97;;;1.40;;
58091;SDS011;43896;48.178;11.578;2023-07-29T05:12:59;2.90;;;1.40;;
58091;SDS011;43896;48.178;11.578;2023-07-29T05:15:30;3.35;;;1.52;;
58091;SDS011;43896;48.178;11.578;2023-07-29T05:17:58;3.10;;;1.50;;
58091;SDS011;43896;48.178;11.578;2023-07-29T05:20:26;3.65;;;1.70;;
58091;SDS011;43896;48.178;11.578;2023-07-29T05:22:56;3.30;;;1.60;;
58091;SDS011;43896;48.178;11.578;2023-07-29T05:26:08;3.90;;;1.30;;
58091;SDS011;43896;48.178;11.578;2023-07-29T05:28:43;3.53;;;1.45;;
58091;SDS011;43896;48.178;11.578;2023-07-29T05:31:10;3.95;;;1.40;;
58091;SDS011;43896;48.178;11.578;2023-07-29T05:33:57;3.13;;;1.35;;
58091;SDS011;43896;48.178;11.578;2023-07-29T05:36:30;3.15;;;1.45;;
58091;SDS011;43896;48.178;11.578;2023-07-29T05:39:12;3.33;;;1.38;;
58091;SDS011;43896;48.178;11.578;2023-07-29T05:41:51;3.28;;;1.45;;
58091;SDS011;43896;48.178;11.578;2023-07-29T05:44:33;3.60;;;1.60;;
58091;SDS011;43896;48.178;11.578;2023-07-29T05:46:58;4.10;;;1.40;;
58091;SDS011;43896;48.178;11.578;2023-07-29T05:49:24;4.05;;;1.60;;
58091;SDS011;43896;48.178;11.578;2023-07-29T05:51:49;2.72;;;1.27;;
58091;SDS011;43896;48.178;11.578;2023-07-29T05:54:18;4.13;;;1.30;;
58091;SDS011;43896;48.178;11.578;2023-07-29T05:56:44;3.15;;;1.38;;
58091;SDS011;43896;48.178;11.578;2023-07-29T05:59:09;2.58;;;1.20;;
58091;SDS011;43896;48.178;11.578;2023-07-29T06:01:34;4.20;;;1.40;;
58091;SDS011;43896;48.178;11.578;2023-07-29T06:04:00;3.17;;;1.40;;
58091;SDS011;43896;48.178;11.578;2023-07-29T06:06:25;3.25;;;1.27;;
58091;SDS011;43896;48.178;11.578;2023-07-29T06:08:51;4.32;;;1.52;;
58091;SDS011;43896;48.178;11.578;2023-07-29T06:11:16;4.68;;;1.40;;
58091;SDS011;43896;48.178;11.578;2023-07-29T06:13:41;3.83;;;1.50;;
58091;SDS011;43896;48.178;11.578;2023-07-29T06:16:07;4.32;;;1.25;;
58091;SDS011;43896;48.178;11.578;2023-07-29T06:18:32;6.07;;;1.40;;
58091;SDS011;43896;48.178;11.578;2023-07-29T06:20:58;6.50;;;1.40;;
58091;SDS011;43896;48.178;11.578;2023-07-29T06:23:23;2.45;;;1.20;;
58091;SDS011;43896;48.178;11.578;2023-07-29T06:26:04;4.25;;;1.30;;
58091;SDS011;43896;48.178;11.578;2023-07-29T06:28:30;2.92;;;1.27;;
58091;SDS011;43896;48.178;11.578;2023-07-29T06:30:56;4.05;;;1.17;;
58091;SDS011;43896;48.178;11.578;2023-07-29T06:33:21;5.53;;;1.58;;
58091;SDS011;43896;48.178;11.578;2023-07-29T06:35:49;4.03;;;1.50;;
58091;SDS011;43896;48.178;11.578;2023-07-29T06:38:17;5.07;;;1.38;;
58091;SDS011;43896;48.178;11.578;2023-07-29T06:40:46;2.03;;;1.00;;
58091;SDS011;43896;48.178;11.578;2023-07-29T06:43:12;6.47;;;1.63;;
58091;SDS011;43896;48.178;11.578;2023-07-29T06:45:37;5.00;;;1.38;;
58091;SDS011;43896;48.178;11.578;2023-07-29T06:48:03;4.28;;;1.50;;
58091;SDS011;43896;48.178;11.578;2023-07-29T06:50:29;4.18;;;1.40;;
58091;SDS011;43896;48.178;11.578;2023-07-29T06:52:54;3.85;;;1.33;;
58091;SDS011;43896;48.178;11.578;2023-07-29T06:55:19;2.58;;;1.23;;
58091;SDS011;43896;48.178;11.578;2023-07-29T06:57:45;3.42;;;1.30;;
58091;SDS011;43896;48.178;11.578;2023-07-29T07:00:11;4.43;;;1.25;;
58091;SDS011;43896;48.178;11.578;2023-07-29T07:02:37;3.25;;;1.42;;
58091;SDS011;43896;48.178;11.578;2023-07-29T07:05:02;5.72;;;1.52;;
58091;SDS011;43896;48.178;11.578;2023-07-29T07:07:27;4.72;;;1.60;;
58091;SDS011;43896;48.178;11.578;2023-07-29T07:09:53;5.55;;;1.50;;
58091;SDS011;43896;48.178;11.578;2023-07-29T07:12:18;4.15;;;1.58;;
58091;SDS011;43896;48.178;11.578;2023-07-29T07:14:44;5.35;;;1.90;;
58091;SDS011;43896;48.178;11.578;2023-07-29T07:17:09;3.92;;;1.90;;
58091;SDS011;43896;48.178;11.578;2023-07-29T07:19:34;4.45;;;1.63;;
58091;SDS011;43896;48.178;11.578;2023-07-29T07:22:00;4.00;;;1.52;;
58091;SDS011;43896;48.178;11.578;2023-07-29T07:24:25;3.88;;;1.40;;
58091;SDS011;43896;48.178;11.578;2023-07-29T07:26:50;3.75;;;1.63;;
58091;SDS011;43896;48.178;11.578;2023-07-29T07:29:16;4.65;;;1.60;;
58091;SDS011;43896;48.178;11.578;2023-07-29T07:31:43;3.67;;;1.55;;
58091;SDS011;43896;48.178;11.578;2023-07-29T07:34:16;4.18;;;1.75;;
58091;SDS011;43896;48.178;11.578;2023-07-29T07:36:59;4.40;;;1.70;;
58091;SDS011;43896;48.178;11.578;2023-07-29T07:39:31;6.03;;;1.88;;
58091;SDS011;43896;48.178;11.578;2023-07-29T07:41:56;4.35;;;2.00;;
58091;SDS011;43896;48.178;11.578;2023-07-29T07:44:25;5.25;;;2.13;;
58091;SDS011;43896;48.178;11.578;2023-07-29T07:46:51;5.75;;;1.90;;
58091;SDS011;43896;48.178;11.578;2023-07-29T07:49:19;6.22;;;1.90;;
58091;SDS011;43896;48.178;11.578;2023-07-29T07:51:45;4.75;;;1.88;;
58091;SDS011;43896;48.178;11.578;2023-07-29T07:54:10;6.15;;;1.98;;
58091;SDS011;43896;48.178;11.578;2023-07-29T07:56:35;4.72;;;2.10;;
58091;SDS011;43896;48.178;11.578;2023-07-29T07:59:01;4.20;;;1.95;;
58091;SDS011;43896;48.178;11.578;2023-07-29T08:01:26;4.57;;;2.17;;
58091;SDS011;43896;48.178;11.578;2023-07-29T08:03:51;4.97;;;2.28;;
58091;SDS011;43896;48.178;11.578;2023-07-29T08:06:17;5.85;;;1.90;;
58091;SDS011;43896;48.178;11.578;2023-07-29T08:08:42;6.95;;;1.90;;
58091;SDS011;43896;48.178;11.578;2023-07-29T08:11:10;7.05;;;1.95;;
58091;SDS011;43896;48.178;11.578;2023-07-29T08:13:36;4.50;;;2.22;;
58091;SDS011;43896;48.178;11.578;2023-07-29T08:16:01;5.72;;;2.10;;
58091;SDS011;43896;48.178;11.578;2023-07-29T08:18:27;5.15;;;2.05;;
58091;SDS011;43896;48.178;11.578;2023-07-29T08:20:55;4.13;;;2.22;;
58091;SDS011;43896;48.178;11.578;2023-07-29T08:23:27;5.10;;;2.22;;
58091;SDS011;43896;48.178;11.578;2023-07-29T08:25:54;4.65;;;2.20;;
58091;SDS011;43896;48.178;11.578;2023-07-29T08:28:21;4.60;;;2.00;;
58091;SDS011;43896;48.178;11.578;2023-07-29T08:30:47;3.90;;;2.00;;
58091;SDS011;43896;48.178;11.578;2023-07-29T08:33:13;4.82;;;2.25;;
58091;SDS011;43896;48.178;11.578;2023-07-29T08:35:38;4.72;;;2.10;;
58091;SDS011;43896;48.178;11.578;2023-07-29T08:38:03;5.20;;;2.17;;
58091;SDS011;43896;48.178;11.578;2023-07-29T08:40:29;4.20;;;2.10;;
58091;SDS011;43896;48.178;11.578;2023-07-29T08:42:56;5.70;;;2.40;;
58091;SDS011;43896;48.178;11.578;2023-07-29T08:45:23;5.57;;;2.40;;
58091;SDS011;43896;48.178;11.578;2023-07-29T08:47:50;4.95;;;2.60;;
58091;SDS011;43896;48.178;11.578;2023-07-29T08:50:19;5.25;;;2.50;;
58091;SDS011;43896;48.178;11.578;2023-07-29T08:52:45;4.65;;;2.20;;
58091;SDS011;43896;48.178;11.578;2023-07-29T08:55:11;5.25;;;2.40;;
58091;SDS011;43896;48.178;11.578;2023-07-29T08:57:37;4.28;;;2.10;;
58091;SDS011;43896;48.178;11.578;2023-07-29T09:00:02;4.30;;;2.20;;
58091;SDS011;43896;48.178;11.578;2023-07-29T09:02:28;5.15;;;1.92;;
58091;SDS011;43896;48.178;11.578;2023-07-29T09:04:54;4.50;;;2.17;;
58091;SDS011;43896;48.178;11.578;2023-07-29T09:07:19;3.95;;;2.03;;
58091;SDS011;43896;48.178;11.578;2023-07-29T09:09:45;6.15;;;2.33;;
58091;SDS011;43896;48.178;11.578;2023-07-29T09:12:11;4.35;;;2.20;;
58091;SDS011;43896;48.178;11.578;2023-07-29T09:14:36;4.63;;;2.20;;
58091;SDS011;43896;48.178;11.578;2023-07-29T09:17:02;4.20;;;2.15;;
58091;SDS011;43896;48.178;11.578;2023-07-29T09:19:27;3.80;;;2.00;;
58091;SDS011;43896;48.178;11.578;2023-07-29T09:21:53;4.75;;;2.10;;
58091;SDS011;43896;48.178;11.578;2023-07-29T09:24:18;4.13;;;2.20;;
58091;SDS011;43896;48.178;11.578;2023-07-29T09:26:52;5.07;;;2.40;;
58091;SDS011;43896;48.178;11.578;2023-07-29T09:29:22;4.13;;;2.00;;
58091;SDS011;43896;48.178;11.578;2023-07-29T09:34:14;6.38;;;2.28;;
58091;SDS011;43896;48.178;11.578;2023-07-29T09:36:40;5.22;;;2.13;;
58091;SDS011;43896;48.178;11.578;2023-07-29T09:39:10;4.00;;;2.10;;
58091;SDS011;43896;48.178;11.578;2023-07-29T09:41:37;3.70;;;1.92;;
58091;SDS011;43896;48.178;11.578;2023-07-29T09:44:03;4.05;;;2.13;;
58091;SDS011;43896;48.178;11.578;2023-07-29T09:46:34;4.22;;;2.15;;
58091;SDS011;43896;48.178;11.578;2023-07-29T09:49:02;3.95;;;2.10;;
58091;SDS011;43896;48.178;11.578;2023-07-29T09:51:28;5.10;;;2.22;;
58091;SDS011;43896;48.178;11.578;2023-07-29T09:53:53;4.60;;;2.40;;
58091;SDS011;43896;48.178;11.578;2023-07-29T09:56:23;4.72;;;2.40;;
58091;SDS011;43896;48.178;11.578;2023-07-29T09:58:50;3.92;;;2.30;;
58091;SDS011;43896;48.178;11.578;2023-07-29T10:01:16;4.30;;;2.10;;
58091;SDS011;43896;48.178;11.578;2023-07-29T10:03:42;4.22;;;2.30;;
58091;SDS011;43896;48.178;11.578;2023-07-29T10:06:09;5.40;;;2.40;;
58091;SDS011;43896;48.178;11.578;2023-07-29T10:08:35;6.18;;;2.65;;
58091;SDS011;43896;48.178;11.578;2023-07-29T10:11:05;4.50;;;2.45;;
58091;SDS011;43896;48.178;11.578;2023-07-29T10:13:31;4.78;;;2.50;;
58091;SDS011;43896;48.178;11.578;2023-07-29T10:15:58;4.20;;;2.30;;
58091;SDS011;43896;48.178;11.578;2023-07-29T10:18:27;5.75;;;2.70;;
58091;SDS011;43896;48.178;11.578;2023-07-29T10:20:53;5.15;;;2.28;;
58091;SDS011;43896;48.178;11.578;2023-07-29T10:23:24;4.05;;;2.20;;
58091;SDS011;43896;48.178;11.578;2023-07-29T10:26:19;3.90;;;2.10;;
58091;SDS011;43896;48.178;11.578;2023-07-29T10:29:12;4.55;;;2.30;;
58091;SDS011;43896;48.178;11.578;2023-07-29T10:32:04;5.13;;;2.30;;
58091;SDS011;43896;48.178;11.578;2023-07-29T10:34:32;3.70;;;2.00;;
58091;SDS011;43896;48.178;11.578;2023-07-29T10:37:01;4.32;;;2.40;;
58091;SDS011;43896;48.178;11.578;2023-07-29T10:39:27;4.57;;;2.38;;
58091;SDS011;43896;48.178;11.578;2023-07-29T10:41:59;3.72;;;2.00;;
58091;SDS011;43896;48.178;11.578;2023-07-29T10:47:13;3.55;;;2.03;;
58091;SDS011;43896;48.178;11.578;2023-07-29T10:49:42;3.97;;;2.30;;
58091;SDS011;43896;48.178;11.578;2023-07-29T10:52:07;4.60;;;2.30;;
58091;SDS011;43896;48.178;11.578;2023-07-29T10:54:41;4.18;;;2.17;;
58091;SDS011;43896;48.178;11.578;2023-07-29T10:57:16;3.60;;;2.10;;
58091;SDS011;43896;48.178;11.578;2023-07-29T10:59:57;4.45;;;2.13;;
58091;SDS011;43896;48.178;11.578;2023-07-29T11:02:30;3.78;;;1.95;;
58091;SDS011;43896;48.178;11.578;2023-07-29T11:05:04;5.63;;;2.33;;
58091;SDS011;43896;48.178;11.578;2023-07-29T11:07:31;4.70;;;2.35;;
58091;SDS011;43896;48.178;11.578;2023-07-29T11:10:12;6.78;;;2.70;;
58091;SDS011;43896;48.178;11.578;2023-07-29T11:12:50;9.25;;;2.55;;
58091;SDS011;43896;48.178;11.578;2023-07-29T11:15:25;4.63;;;2.00;;
58091;SDS011;43896;48.178;11.578;2023-07-29T11:17:55;3.60;;;1.33;;
58091;SDS011;43896;48.178;11.578;2023-07-29T11:20:23;5.15;;;1.50;;
58091;SDS011;43896;48.178;11.578;2023-07-29T11:22:52;3.85;;;1.52;;
58091;SDS011;43896;48.178;11.578;2023-07-29T11:25:18;3.53;;;1.60;;
58091;SDS011;43896;48.178;11.578;2023-07-29T11:27:44;4.13;;;1.50;;
58091;SDS011;43896;48.178;11.578;2023-07-29T11:30:11;3.65;;;1.50;;
58091;SDS011;43896;48.178;11.578;2023-07-29T11:32:38;5.10;;;1.60;;
58091;SDS011;43896;48.178;11.578;2023-07-29T11:35:06;5.85;;;1.60;;
58091;SDS011;43896;48.178;11.578;2023-07-29T11:37:33;3.28;;;1.38;;
58091;SDS011;43896;48.178;11.578;2023-07-29T11:39:59;3.25;;;1.50;;
58091;SDS011;43896;48.178;11.578;2023-07-29T11:42:26;4.43;;;1.65;;
58091;SDS011;43896;48.178;11.578;2023-07-29T11:44:58;3.70;;;1.70;;
58091;SDS011;43896;48.178;11.578;2023-07-29T11:47:23;3.70;;;1.85;;
58091;SDS011;43896;48.178;11.578;2023-07-29T11:49:49;3.85;;;2.30;;
58091;SDS011;43896;48.178;11.578;2023-07-29T11:52:15;4.00;;;1.90;;
58091;SDS011;43896;48.178;11.578;2023-07-29T11:54:43;4.13;;;1.70;;
58091;SDS011;43896;48.178;11.578;2023-07-29T11:57:10;3.78;;;1.70;;
58091;SDS011;43896;48.178;11.578;2023-07-29T11:59:36;3.80;;;1.80;;
58091;SDS011;43896;48.178;11.578;2023-07-29T12:02:06;5.85;;;2.00;;
58091;SDS011;43896;48.178;11.578;2023-07-29T12:04:35;3.75;;;1.67;;
58091;SDS011;43896;48.178;11.578;2023-07-29T12:07:02;3.13;;;1.52;;
58091;SDS011;43896;48.178;11.578;2023-07-29T12:09:28;3.75;;;1.90;;
58091;SDS011;43896;48.178;11.578;2023-07-29T12:11:54;3.38;;;1.80;;
58091;SDS011;43896;48.178;11.578;2023-07-29T12:14:20;4.13;;;1.92;;
58091;SDS011;43896;48.178;11.578;2023-07-29T12:16:47;3.65;;;2.00;;
58091;SDS011;43896;48.178;11.578;2023-07-29T12:19:14;3.28;;;1.77;;
58091;SDS011;43896;48.178;11.578;2023-07-29T12:21:43;3.65;;;1.92;;
58091;SDS011;43896;48.178;11.578;2023-07-29T12:24:09;3.63;;;2.00;;
58091;SDS011;43896;48.178;11.578;2023-07-29T12:26:37;4.80;;;1.80;;
58091;SDS011;43896;48.178;11.578;2023-07-29T12:29:12;3.80;;;1.90;;
58091;SDS011;43896;48.178;11.578;2023-07-29T12:31:39;3.60;;;1.98;;
58091;SDS011;43896;48.178;11.578;2023-07-29T12:34:04;4.00;;;2.10;;
58091;SDS011;43896;48.178;11.578;2023-07-29T12:36:42;4.30;;;2.08;;
58091;SDS011;43896;48.178;11.578;2023-07-29T12:41:42;4.78;;;2.10;;
58091;SDS011;43896;48.178;11.578;2023-07-29T12:44:08;4.75;;;2.28;;
58091;SDS011;43896;48.178;11.578;2023-07-29T12:46:33;4.25;;;2.33;;
58091;SDS011;43896;48.178;11.578;2023-07-29T12:48:58;4.90;;;2.42;;
58091;SDS011;43896;48.178;11.578;2023-07-29T12:51:24;4.45;;;2.60;;
58091;SDS011;43896;48.178;11.578;2023-07-29T12:53:49;5.78;;;2.80;;
58091;SDS011;43896;48.178;11.578;2023-07-29T12:56:15;7.63;;;2.60;;
58091;SDS011;43896;48.178;11.578;2023-07-29T12:58:40;9.50;;;2.13;;
58091;SDS011;43896;48.178;11.578;2023-07-29T13:01:05;6.75;;;2.35;;
58091;SDS011;43896;48.178;11.578;2023-07-29T13:03:31;6.88;;;2.10;;
58091;SDS011;43896;48.178;11.578;2023-07-29T13:05:56;5.00;;;2.05;;
58091;SDS011;43896;48.178;11.578;2023-07-29T13:08:21;4.75;;;2.00;;
58091;SDS011;43896;48.178;11.578;2023-07-29T13:10:48;4.72;;;2.15;;
58091;SDS011;43896;48.178;11.578;2023-07-29T13:13:13;7.40;;;2.10;;
58091;SDS011;43896;48.178;11.578;2023-07-29T13:15:39;4.78;;;2.40;;
58091;SDS011;43896;48.178;11.578;2023-07-29T13:18:04;4.95;;;2.60;;
58091;SDS011;43896;48.178;11.578;2023-07-29T13:20:29;5.30;;;2.75;;
58091;SDS011;43896;48.178;11.578;2023-07-29T13:22:55;5.53;;;2.83;;
58091;SDS011;43896;48.178;11.578;2023-07-29T13:25:20;5.03;;;3.00;;
58091;SDS011;43896;48.178;11.578;2023-07-29T13:27:46;6.03;;;3.38;;
58091;SDS011;43896;48.178;11.578;2023-07-29T13:30:11;6.22;;;3.63;;
58091;SDS011;43896;48.178;11.578;2023-07-29T13:32:36;5.90;;;3.63;;
58091;SDS011;43896;48.178;11.578;2023-07-29T13:35:02;7.00;;;3.60;;
58091;SDS011;43896;48.178;11.578;2023-07-29T13:37:27;6.32;;;3.63;;
58091;SDS011;43896;48.178;11.578;2023-07-29T13:39:52;7.07;;;3.88;;
58091;SDS011;43896;48.178;11.578;2023-07-29T13:42:18;6.40;;;3.38;;
58091;SDS011;43896;48.178;11.578;2023-07-29T13:44:43;7.47;;;3.60;;
58091;SDS011;43896;48.178;11.578;2023-07-29T13:47:09;6.25;;;3.70;;
58091;SDS011;43896;48.178;11.578;2023-07-29T13:49:34;6.22;;;3.50;;
58091;SDS011;43896;48.178;11.578;2023-07-29T13:51:59;6.68;;;3.45;;
58091;SDS011;43896;48.178;11.578;2023-07-29T13:54:25;6.70;;;3.60;;
58091;SDS011;43896;48.178;11.578;2023-07-29T13:56:50;8.07;;;4.00;;
58091;SDS011;43896;48.178;11.578;2023-07-29T13:59:16;6.65;;;3.95;;
58091;SDS011;43896;48.178;11.578;2023-07-29T14:01:41;6.93;;;3.58;;
58091;SDS011;43896;48.178;11.578;2023-07-29T14:04:06;5.07;;;3.00;;
58091;SDS011;43896;48.178;11.578;2023-07-29T14:06:32;7.13;;;3.33;;
58091;SDS011;43896;48.178;11.578;2023-07-29T14:08:57;5.82;;;2.97;;
58091;SDS011;43896;48.178;11.578;2023-07-29T14:11:26;5.13;;;2.95;;
58091;SDS011;43896;48.178;11.578;2023-07-29T14:13:51;5.97;;;2.97;;
58091;SDS011;43896;48.178;11.578;2023-07-29T14:16:16;5.57;;;3.17;;
58091;SDS011;43896;48.178;11.578;2023-07-29T14:18:41;6.68;;;3.47;;
58091;SDS011;43896;48.178;11.578;2023-07-29T14:21:07;6.53;;;3.50;;
58091;SDS011;43896;48.178;11.578;2023-07-29T14:23:33;6.03;;;3.50;;
58091;SDS011;43896;48.178;11.578;2023-07-29T14:25:58;6.53;;;3.58;;
58091;SDS011;43896;48.178;11.578;2023-07-29T14:28:23;5.20;;;3.08;;
58091;SDS011;43896;48.178;11.578;2023-07-29T14:30:49;5.53;;;3.25;;
58091;SDS011;43896;48.178;11.578;2023-07-29T14:33:14;5.50;;;3.35;;
58091;SDS011;43896;48.178;11.578;2023-07-29T14:35:40;6.55;;;3.20;;
58091;SDS011;43896;48.178;11.578;2023-07-29T14:38:05;6.45;;;3.55;;
58091;SDS011;43896;48.178;11.578;2023-07-29T14:40:30;6.05;;;3.67;;
58091;SDS011;43896;48.178;11.578;2023-07-29T14:42:56;6.75;;;3.75;;
58091;SDS011;43896;48.178;11.578;2023-07-29T14:45:21;5.82;;;3.63;;
58091;SDS011;43896;48.178;11.578;2023-07-29T14:47:46;6.28;;;3.17;;
58091;SDS011;43896;48.178;11.578;2023-07-29T14:50:12;5.53;;;3.10;;
58091;SDS011;43896;48.178;11.578;2023-07-29T14:52:37;5.03;;;2.80;;
58091;SDS011;43896;48.178;11.578;2023-07-29T14:55:02;5.25;;;2.72;;
58091;SDS011;43896;48.178;11.578;2023-07-29T14:57:29;4.68;;;2.70;;
58091;SDS011;43896;48.178;11.578;2023-07-29T14:59:54;7.20;;;2.88;;
58091;SDS011;43896;48.178;11.578;2023-07-29T15:02:21;6.55;;;3.10;;
58091;SDS011;43896;48.178;11.578;2023-07-29T15:04:55;7.47;;;3.60;;
58091;SDS011;43896;48.178;11.578;2023-07-29T15:07:24;6.65;;;3.35;;